Bergen, New York
Current Conditions -  °F | °C
As of 8:09 AM on Thursday 27 Nov 2014 (Local Time) from KROC Reporting Station
Light Snow Light Snow  
Wind Chill: 28°   Ceiling: 6500
Heat Index: 28°   Visibility: 9mi
Dew Point: 25°   Wind: 3mph
Humidity: 88%   Direction: 310°NW
Pressure: 30.05"   Gusts: NA
Location:  43.09°N, 77.94°W
Report Text: KROC 271309Z 31003KT 9SM -SN OVC065 M02/M04 A3005 RMK AO2 P0000 T10221039
Loading
Personal Weather Stations






























Interactive Weather Map New forecast layout! Learn more

10-Day Weather Forecast

Advertisements
Track Severe Weather on mobile